sensor_id;sensor_type;location;lat;lon;timestamp;pressure;altitude;pressure_sealevel;temperature;humidity
56402;BME280;42299;35.160;26.100;2023-02-12T00:01:11;102225.09;;;10.31;84.16
56402;BME280;42299;35.160;26.100;2023-02-12T00:02:32;102225.09;;;10.31;84.86
56402;BME280;42299;35.160;26.100;2023-02-12T00:03:55;102210.16;;;10.32;85.18
56402;BME280;42299;35.160;26.100;2023-02-12T00:05:17;102222.53;;;10.33;85.40
56402;BME280;42299;35.160;26.100;2023-02-12T00:06:38;102213.72;;;10.32;86.13
56402;BME280;42299;35.160;26.100;2023-02-12T00:08:01;102221.78;;;10.35;86.80
56402;BME280;42299;35.160;26.100;2023-02-12T00:09:23;102219.97;;;10.34;87.73
56402;BME280;42299;35.160;26.100;2023-02-12T00:10:46;102214.69;;;10.34;88.52
56402;BME280;42299;35.160;26.100;2023-02-12T00:12:07;102213.84;;;10.35;89.75
56402;BME280;42299;35.160;26.100;2023-02-12T00:13:30;102220.06;;;10.37;90.60
56402;BME280;42299;35.160;26.100;2023-02-12T00:14:51;102210.38;;;10.36;91.35
56402;BME280;42299;35.160;26.100;2023-02-12T00:16:15;102213.91;;;10.37;92.00
56402;BME280;42299;35.160;26.100;2023-02-12T00:17:37;102223.59;;;10.38;92.47
56402;BME280;42299;35.160;26.100;2023-02-12T00:18:59;102216.59;;;10.38;93.02
56402;BME280;42299;35.160;26.100;2023-02-12T00:20:21;102218.31;;;10.38;93.53
56402;BME280;42299;35.160;26.100;2023-02-12T00:21:44;102208.66;;;10.38;93.70
56402;BME280;42299;35.160;26.100;2023-02-12T00:23:06;102207.78;;;10.38;94.12
56402;BME280;42299;35.160;26.100;2023-02-12T00:24:29;102208.63;;;10.37;94.05
56402;BME280;42299;35.160;26.100;2023-02-12T00:25:51;102212.13;;;10.36;93.77
56402;BME280;42299;35.160;26.100;2023-02-12T00:27:12;102208.56;;;10.35;93.04
56402;BME280;42299;35.160;26.100;2023-02-12T00:28:35;102213.00;;;10.36;93.18
56402;BME280;42299;35.160;26.100;2023-02-12T00:29:56;102207.72;;;10.36;93.21
56402;BME280;42299;35.160;26.100;2023-02-12T00:31:21;102204.22;;;10.37;92.75
56402;BME280;42299;35.160;26.100;2023-02-12T00:32:44;102197.19;;;10.36;92.47
56402;BME280;42299;35.160;26.100;2023-02-12T00:34:06;102199.84;;;10.38;91.74
56402;BME280;42299;35.160;26.100;2023-02-12T00:35:30;102199.91;;;10.39;91.26
56402;BME280;42299;35.160;26.100;2023-02-12T00:36:51;102194.63;;;10.39;90.86
56402;BME280;42299;35.160;26.100;2023-02-12T00:38:13;102191.22;;;10.42;90.64
56402;BME280;42299;35.160;26.100;2023-02-12T00:39:38;102186.06;;;10.45;91.02
56402;BME280;42299;35.160;26.100;2023-02-12T00:41:04;102191.41;;;10.47;92.01
56402;BME280;42299;35.160;26.100;2023-02-12T00:42:26;102194.94;;;10.47;92.66
56402;BME280;42299;35.160;26.100;2023-02-12T00:43:51;102188.91;;;10.50;93.22
56402;BME280;42299;35.160;26.100;2023-02-12T00:45:13;102190.66;;;10.51;94.43
56402;BME280;42299;35.160;26.100;2023-02-12T00:46:34;102180.09;;;10.51;96.09
56402;BME280;42299;35.160;26.100;2023-02-12T00:47:57;102188.09;;;10.52;97.85
56402;BME280;42299;35.160;26.100;2023-02-12T00:49:18;102191.63;;;10.53;100.00
56402;BME280;42299;35.160;26.100;2023-02-12T00:50:43;102187.25;;;10.53;100.00
56402;BME280;42299;35.160;26.100;2023-02-12T00:52:05;102190.81;;;10.54;100.00
56402;BME280;42299;35.160;26.100;2023-02-12T00:53:28;102195.25;;;10.55;100.00
56402;BME280;42299;35.160;26.100;2023-02-12T00:54:51;102181.13;;;10.54;100.00
56402;BME280;42299;35.160;26.100;2023-02-12T00:56:13;102187.19;;;10.52;100.00
56402;BME280;42299;35.160;26.100;2023-02-12T00:57:34;102172.09;;;10.48;100.00
56402;BME280;42299;35.160;26.100;2023-02-12T00:58:57;102177.13;;;10.42;100.00
56402;BME280;42299;35.160;26.100;2023-02-12T01:00:20;102173.34;;;10.35;100.00
56402;BME280;42299;35.160;26.100;2023-02-12T01:01:41;102174.94;;;10.31;100.00
56402;BME280;42299;35.160;26.100;2023-02-12T01:03:04;102175.69;;;10.27;100.00
56402;BME280;42299;35.160;26.100;2023-02-12T01:04:26;102175.44;;;10.21;100.00
56402;BME280;42299;35.160;26.100;2023-02-12T01:05:49;102177.75;;;10.14;100.00
56402;BME280;42299;35.160;26.100;2023-02-12T01:07:14;102178.25;;;10.05;100.00
56402;BME280;42299;35.160;26.100;2023-02-12T01:08:36;102179.81;;;10.00;100.00
56402;BME280;42299;35.160;26.100;2023-02-12T01:09:59;102160.28;;;9.95;100.00
56402;BME280;42299;35.160;26.100;2023-02-12T01:11:23;102161.00;;;9.91;100.00
56402;BME280;42299;35.160;26.100;2023-02-12T01:12:46;102170.56;;;9.89;100.00
56402;BME280;42299;35.160;26.100;2023-02-12T01:14:07;102166.13;;;9.88;100.00
56402;BME280;42299;35.160;26.100;2023-02-12T01:15:30;102169.69;;;9.88;100.00
56402;BME280;42299;35.160;26.100;2023-02-12T01:16:51;102164.41;;;9.88;100.00
56402;BME280;42299;35.160;26.100;2023-02-12T01:18:13;102162.66;;;9.89;100.00
56402;BME280;42299;35.160;26.100;2023-02-12T01:19:36;102155.66;;;9.89;100.00
56402;BME280;42299;35.160;26.100;2023-02-12T01:20:58;102154.03;;;9.93;100.00
56402;BME280;42299;35.160;26.100;2023-02-12T01:22:19;102162.00;;;9.94;100.00
56402;BME280;42299;35.160;26.100;2023-02-12T01:23:43;102156.00;;;9.98;100.00
56402;BME280;42299;35.160;26.100;2023-02-12T01:25:07;102153.38;;;9.98;100.00
56402;BME280;42299;35.160;26.100;2023-02-12T01:26:30;102163.16;;;10.01;100.00
56402;BME280;42299;35.160;26.100;2023-02-12T01:27:53;102157.94;;;10.03;100.00
56402;BME280;42299;35.160;26.100;2023-02-12T01:29:15;102161.50;;;10.03;100.00
56402;BME280;42299;35.160;26.100;2023-02-12T01:30:36;102158.03;;;10.04;100.00
56402;BME280;42299;35.160;26.100;2023-02-12T01:31:59;102162.50;;;10.07;100.00
56402;BME280;42299;35.160;26.100;2023-02-12T01:33:21;102152.84;;;10.07;100.00
56402;BME280;42299;35.160;26.100;2023-02-12T01:34:43;102158.19;;;10.09;100.00
56402;BME280;42299;35.160;26.100;2023-02-12T01:36:06;102159.16;;;10.11;100.00
56402;BME280;42299;35.160;26.100;2023-02-12T01:37:27;102155.72;;;10.13;100.00
56402;BME280;42299;35.160;26.100;2023-02-12T01:38:50;102158.50;;;10.16;100.00
56402;BME280;42299;35.160;26.100;2023-02-12T01:40:16;102152.44;;;10.17;100.00
56402;BME280;42299;35.160;26.100;2023-02-12T01:41:42;102155.06;;;10.17;100.00
56402;BME280;42299;35.160;26.100;2023-02-12T01:43:08;102151.56;;;10.18;100.00
56402;BME280;42299;35.160;26.100;2023-02-12T01:44:33;102143.63;;;10.18;100.00
56402;BME280;42299;35.160;26.100;2023-02-12T01:45:58;102136.63;;;10.19;100.00
56402;BME280;42299;35.160;26.100;2023-02-12T01:47:22;102146.34;;;10.20;100.00
56402;BME280;42299;35.160;26.100;2023-02-12T01:48:46;102143.78;;;10.21;100.00
56402;BME280;42299;35.160;26.100;2023-02-12T01:50:11;102139.41;;;10.22;100.00
56402;BME280;42299;35.160;26.100;2023-02-12T01:51:33;102138.44;;;10.20;100.00
56402;BME280;42299;35.160;26.100;2023-02-12T01:52:57;102135.03;;;10.22;100.00
56402;BME280;42299;35.160;26.100;2023-02-12T01:54:19;102134.19;;;10.23;100.00
56402;BME280;42299;35.160;26.100;2023-02-12T01:55:51;102135.09;;;10.24;100.00
56402;BME280;42299;35.160;26.100;2023-02-12T01:57:15;102139.47;;;10.23;100.00
56402;BME280;42299;35.160;26.100;2023-02-12T01:58:40;102129.75;;;10.22;100.00
56402;BME280;42299;35.160;26.100;2023-02-12T02:00:07;102135.97;;;10.24;100.00
56402;BME280;42299;35.160;26.100;2023-02-12T02:01:34;102127.22;;;10.25;100.00
56402;BME280;42299;35.160;26.100;2023-02-12T02:02:57;102123.72;;;10.26;100.00
56402;BME280;42299;35.160;26.100;2023-02-12T02:04:24;102131.66;;;10.26;100.00
56402;BME280;42299;35.160;26.100;2023-02-12T02:05:53;102136.94;;;10.26;100.00
56402;BME280;42299;35.160;26.100;2023-02-12T02:07:16;102128.19;;;10.27;100.00
56402;BME280;42299;35.160;26.100;2023-02-12T02:08:39;102130.88;;;10.29;100.00
56402;BME280;42299;35.160;26.100;2023-02-12T02:10:05;102127.41;;;10.30;100.00
56402;BME280;42299;35.160;26.100;2023-02-12T02:11:29;102127.44;;;10.31;100.00
56402;BME280;42299;35.160;26.100;2023-02-12T02:13:09;102125.53;;;10.27;100.00
56402;BME280;42299;35.160;26.100;2023-02-12T02:14:50;102121.94;;;10.25;100.00
56402;BME280;42299;35.160;26.100;2023-02-12T02:16:18;102123.63;;;10.23;100.00
56402;BME280;42299;35.160;26.100;2023-02-12T02:17:46;102126.28;;;10.23;100.00
56402;BME280;42299;35.160;26.100;2023-02-12T02:19:19;102134.22;;;10.25;100.00
56402;BME280;42299;35.160;26.100;2023-02-12T02:27:07;102120.41;;;10.30;100.00
56402;BME280;42299;35.160;26.100;2023-02-12T02:28:48;102130.06;;;10.30;100.00
56402;BME280;42299;35.160;26.100;2023-02-12T02:30:38;102127.44;;;10.31;100.00
56402;BME280;42299;35.160;26.100;2023-02-12T02:32:07;102125.72;;;10.32;100.00
56402;BME280;42299;35.160;26.100;2023-02-12T02:33:37;102117.84;;;10.33;100.00
56402;BME280;42299;35.160;26.100;2023-02-12T02:35:07;102124.88;;;10.33;100.00
56402;BME280;42299;35.160;26.100;2023-02-12T02:36:34;102126.59;;;10.32;100.00
56402;BME280;42299;35.160;26.100;2023-02-12T02:38:06;102117.84;;;10.33;100.00
56402;BME280;42299;35.160;26.100;2023-02-12T02:39:36;102111.59;;;10.31;100.00
56402;BME280;42299;35.160;26.100;2023-02-12T02:41:06;102118.63;;;10.31;100.00
56402;BME280;42299;35.160;26.100;2023-02-12T02:42:32;102115.94;;;10.29;100.00
56402;BME280;42299;35.160;26.100;2023-02-12T02:43:56;102121.22;;;10.29;100.00
56402;BME280;42299;35.160;26.100;2023-02-12T02:45:23;102119.53;;;10.31;100.00
56402;BME280;42299;35.160;26.100;2023-02-12T02:46:51;102115.16;;;10.32;100.00
56402;BME280;42299;35.160;26.100;2023-02-12T02:48:18;102122.22;;;10.33;100.00
56402;BME280;42299;35.160;26.100;2023-02-12T02:49:45;102122.16;;;10.31;100.00
56402;BME280;42299;35.160;26.100;2023-02-12T02:51:10;102111.56;;;10.30;100.00
56402;BME280;42299;35.160;26.100;2023-02-12T02:52:35;102117.75;;;10.30;100.00
56402;BME280;42299;35.160;26.100;2023-02-12T02:54:04;102125.72;;;10.32;100.00
56402;BME280;42299;35.160;26.100;2023-02-12T02:55:35;102111.66;;;10.33;100.00
56402;BME280;42299;35.160;26.100;2023-02-12T02:57:00;102113.53;;;10.35;100.00
56402;BME280;42299;35.160;26.100;2023-02-12T02:58:27;102122.47;;;10.39;100.00
56402;BME280;42299;35.160;26.100;2023-02-12T02:59:54;102115.44;;;10.39;100.00
56402;BME280;42299;35.160;26.100;2023-02-12T03:01:22;102109.25;;;10.39;100.00
56402;BME280;42299;35.160;26.100;2023-02-12T03:02:51;102110.16;;;10.39;100.00
56402;BME280;42299;35.160;26.100;2023-02-12T03:04:18;102113.72;;;10.40;100.00
56402;BME280;42299;35.160;26.100;2023-02-12T03:05:43;102109.31;;;10.41;100.00
56402;BME280;42299;35.160;26.100;2023-02-12T03:07:09;102105.84;;;10.42;100.00
56402;BME280;42299;35.160;26.100;2023-02-12T03:08:35;102119.88;;;10.41;100.00
56402;BME280;42299;35.160;26.100;2023-02-12T03:10:03;102119.97;;;10.42;100.00
56402;BME280;42299;35.160;26.100;2023-02-12T03:11:28;102112.03;;;10.42;100.00
56402;BME280;42299;35.160;26.100;2023-02-12T03:12:54;102109.44;;;10.44;100.00
56402;BME280;42299;35.160;26.100;2023-02-12T03:14:21;102106.78;;;10.44;100.00
56402;BME280;42299;35.160;26.100;2023-02-12T03:15:48;102109.44;;;10.44;100.00
56402;BME280;42299;35.160;26.100;2023-02-12T03:17:14;102110.28;;;10.43;100.00
56402;BME280;42299;35.160;26.100;2023-02-12T03:18:42;102110.28;;;10.43;100.00
56402;BME280;42299;35.160;26.100;2023-02-12T03:20:11;102106.75;;;10.42;100.00
56402;BME280;42299;35.160;26.100;2023-02-12T03:21:40;102112.06;;;10.44;100.00
56402;BME280;42299;35.160;26.100;2023-02-12T03:23:06;102102.41;;;10.44;100.00
56402;BME280;42299;35.160;26.100;2023-02-12T03:24:35;102106.78;;;10.44;100.00
56402;BME280;42299;35.160;26.100;2023-02-12T03:26:02;102105.91;;;10.43;100.00
56402;BME280;42299;35.160;26.100;2023-02-12T03:27:28;102105.03;;;10.43;100.00
56402;BME280;42299;35.160;26.100;2023-02-12T03:28:52;102093.56;;;10.42;100.00
56402;BME280;42299;35.160;26.100;2023-02-12T03:30:14;102092.66;;;10.42;100.00
56402;BME280;42299;35.160;26.100;2023-02-12T03:31:45;102088.28;;;10.42;100.00
56402;BME280;42299;35.160;26.100;2023-02-12T03:33:16;102090.00;;;10.42;100.00
56402;BME280;42299;35.160;26.100;2023-02-12T03:34:45;102097.78;;;10.37;100.00
56402;BME280;42299;35.160;26.100;2023-02-12T03:36:14;102088.06;;;10.36;100.00
56402;BME280;42299;35.160;26.100;2023-02-12T03:37:45;102102.09;;;10.35;100.00
56402;BME280;42299;35.160;26.100;2023-02-12T03:39:27;102095.06;;;10.35;100.00
56402;BME280;42299;35.160;26.100;2023-02-12T03:40:55;102095.91;;;10.34;100.00
56402;BME280;42299;35.160;26.100;2023-02-12T03:42:26;102103.81;;;10.34;100.00
56402;BME280;42299;35.160;26.100;2023-02-12T03:43:56;102102.09;;;10.35;100.00
56402;BME280;42299;35.160;26.100;2023-02-12T03:45:29;102103.06;;;10.37;100.00
56402;BME280;42299;35.160;26.100;2023-02-12T03:47:00;102104.78;;;10.36;100.00
56402;BME280;42299;35.160;26.100;2023-02-12T03:48:25;102098.59;;;10.36;100.00
56402;BME280;42299;35.160;26.100;2023-02-12T03:49:54;102098.63;;;10.37;100.00
56402;BME280;42299;35.160;26.100;2023-02-12T03:51:22;102102.97;;;10.35;100.00
56402;BME280;42299;35.160;26.100;2023-02-12T03:52:48;102101.25;;;10.36;100.00
56402;BME280;42299;35.160;26.100;2023-02-12T03:54:14;102088.94;;;10.36;100.00
56402;BME280;42299;35.160;26.100;2023-02-12T03:55:39;102095.06;;;10.35;100.00
56402;BME280;42299;35.160;26.100;2023-02-12T03:57:07;102095.97;;;10.36;100.00
56402;BME280;42299;35.160;26.100;2023-02-12T03:58:31;102094.16;;;10.35;100.00
56402;BME280;42299;35.160;26.100;2023-02-12T03:59:55;102092.50;;;10.37;100.00
56402;BME280;42299;35.160;26.100;2023-02-12T04:01:17;102102.16;;;10.36;100.00
56402;BME280;42299;35.160;26.100;2023-02-12T04:02:40;102102.97;;;10.35;100.00
56402;BME280;42299;35.160;26.100;2023-02-12T04:04:05;102094.16;;;10.35;100.00
56402;BME280;42299;35.160;26.100;2023-02-12T04:05:28;102094.09;;;10.33;100.00
56402;BME280;42299;35.160;26.100;2023-02-12T04:06:51;102095.84;;;10.33;100.00
56402;BME280;42299;35.160;26.100;2023-02-12T04:08:13;102097.56;;;10.32;100.00
56402;BME280;42299;35.160;26.100;2023-02-12T04:09:35;102095.78;;;10.31;99.87
56402;BME280;42299;35.160;26.100;2023-02-12T04:11:05;102097.56;;;10.32;99.64
56402;BME280;42299;35.160;26.100;2023-02-12T04:12:40;102099.28;;;10.30;98.85
56402;BME280;42299;35.160;26.100;2023-02-12T04:14:14;102101.06;;;10.31;98.74
56402;BME280;42299;35.160;26.100;2023-02-12T04:15:53;102094.94;;;10.32;98.68
56402;BME280;42299;35.160;26.100;2023-02-12T04:17:21;102095.84;;;10.33;98.45
56402;BME280;42299;35.160;26.100;2023-02-12T04:18:47;102098.53;;;10.34;98.19
56402;BME280;42299;35.160;26.100;2023-02-12T04:20:15;102089.78;;;10.35;98.20
56402;BME280;42299;35.160;26.100;2023-02-12T04:21:50;102097.66;;;10.34;98.43
56402;BME280;42299;35.160;26.100;2023-02-12T04:23:23;102081.75;;;10.32;98.48
56402;BME280;42299;35.160;26.100;2023-02-12T04:24:49;102092.06;;;10.26;97.83
56402;BME280;42299;35.160;26.100;2023-02-12T04:26:20;102086.78;;;10.26;98.12
56402;BME280;42299;35.160;26.100;2023-02-12T04:27:47;102083.25;;;10.26;97.88
56402;BME280;42299;35.160;26.100;2023-02-12T04:29:17;102096.50;;;10.27;98.01
56402;BME280;42299;35.160;26.100;2023-02-12T04:30:46;102097.34;;;10.26;98.21
56402;BME280;42299;35.160;26.100;2023-02-12T04:32:16;102091.22;;;10.27;98.32
56402;BME280;42299;35.160;26.100;2023-02-12T04:33:43;102097.41;;;10.28;98.27
56402;BME280;42299;35.160;26.100;2023-02-12T04:35:14;102083.31;;;10.27;98.50
56402;BME280;42299;35.160;26.100;2023-02-12T04:36:52;102088.53;;;10.26;97.61
56402;BME280;42299;35.160;26.100;2023-02-12T04:38:20;102091.22;;;10.27;96.61
56402;BME280;42299;35.160;26.100;2023-02-12T04:39:43;102093.94;;;10.29;96.33
56402;BME280;42299;35.160;26.100;2023-02-12T04:41:06;102102.75;;;10.29;96.08
56402;BME280;42299;35.160;26.100;2023-02-12T04:42:28;102094.88;;;10.31;95.39
56402;BME280;42299;35.160;26.100;2023-02-12T04:43:51;102094.00;;;10.30;93.67
56402;BME280;42299;35.160;26.100;2023-02-12T04:45:15;102092.38;;;10.34;93.36
56402;BME280;42299;35.160;26.100;2023-02-12T04:46:40;102091.41;;;10.32;92.86
56402;BME280;42299;35.160;26.100;2023-02-12T04:48:02;102094.09;;;10.33;92.19
56402;BME280;42299;35.160;26.100;2023-02-12T04:49:25;102080.91;;;10.33;90.85
56402;BME280;42299;35.160;26.100;2023-02-12T04:50:46;102092.38;;;10.34;90.43
56402;BME280;42299;35.160;26.100;2023-02-12T04:52:10;102092.38;;;10.34;90.06
56402;BME280;42299;35.160;26.100;2023-02-12T04:53:32;102102.91;;;10.34;89.97
56402;BME280;42299;35.160;26.100;2023-02-12T04:54:53;102100.28;;;10.34;89.57
56402;BME280;42299;35.160;26.100;2023-02-12T04:56:16;102090.56;;;10.33;89.27
56402;BME280;42299;35.160;26.100;2023-02-12T04:57:38;102103.69;;;10.31;88.47
56402;BME280;42299;35.160;26.100;2023-02-12T04:59:01;102098.47;;;10.33;87.98
56402;BME280;42299;35.160;26.100;2023-02-12T05:00:22;102094.09;;;10.33;88.25
56402;BME280;42299;35.160;26.100;2023-02-12T05:01:44;102095.91;;;10.34;89.49
56402;BME280;42299;35.160;26.100;2023-02-12T05:03:06;102097.66;;;10.34;89.97
56402;BME280;42299;35.160;26.100;2023-02-12T05:04:28;102101.19;;;10.34;90.56
56402;BME280;42299;35.160;26.100;2023-02-12T05:05:50;102093.25;;;10.34;90.98
56402;BME280;42299;35.160;26.100;2023-02-12T05:07:13;102100.34;;;10.35;91.10
56402;BME280;42299;35.160;26.100;2023-02-12T05:08:35;102102.09;;;10.35;91.34
56402;BME280;42299;35.160;26.100;2023-02-12T05:09:57;102102.91;;;10.34;91.30
56402;BME280;42299;35.160;26.100;2023-02-12T05:11:19;102096.75;;;10.33;91.43
56402;BME280;42299;35.160;26.100;2023-02-12T05:12:42;102102.91;;;10.34;91.71
56402;BME280;42299;35.160;26.100;2023-02-12T05:14:03;102101.13;;;10.33;91.41
56402;BME280;42299;35.160;26.100;2023-02-12T05:15:25;102105.50;;;10.32;91.29
56402;BME280;42299;35.160;26.100;2023-02-12T05:16:46;102107.19;;;10.30;91.06
56402;BME280;42299;35.160;26.100;2023-02-12T05:18:09;102103.59;;;10.28;91.14
56402;BME280;42299;35.160;26.100;2023-02-12T05:19:30;102106.16;;;10.27;91.09
56402;BME280;42299;35.160;26.100;2023-02-12T05:20:56;102107.84;;;10.25;91.41
56402;BME280;42299;35.160;26.100;2023-02-12T05:22:19;102105.94;;;10.21;91.96
56402;BME280;42299;35.160;26.100;2023-02-12T05:23:42;102112.75;;;10.16;92.85
56402;BME280;42299;35.160;26.100;2023-02-12T05:25:05;102115.31;;;10.14;93.03
56402;BME280;42299;35.160;26.100;2023-02-12T05:26:26;102114.09;;;10.06;93.38
56402;BME280;42299;35.160;26.100;2023-02-12T05:27:48;102104.28;;;10.02;93.95
56402;BME280;42299;35.160;26.100;2023-02-12T05:29:10;102107.75;;;10.01;93.85
56402;BME280;42299;35.160;26.100;2023-02-12T05:30:32;102113.81;;;9.98;93.75
56402;BME280;42299;35.160;26.100;2023-02-12T05:31:54;102112.97;;;9.99;93.62
56402;BME280;42299;35.160;26.100;2023-02-12T05:33:16;102111.38;;;10.03;93.25
56402;BME280;42299;35.160;26.100;2023-02-12T05:34:37;102114.09;;;10.06;92.97
56402;BME280;42299;35.160;26.100;2023-02-12T05:36:03;102116.03;;;10.10;92.77
56402;BME280;42299;35.160;26.100;2023-02-12T05:37:26;102119.63;;;10.12;92.95
56402;BME280;42299;35.160;26.100;2023-02-12T05:38:49;102111.66;;;10.11;93.40
56402;BME280;42299;35.160;26.100;2023-02-12T05:40:11;102119.63;;;10.12;93.70
56402;BME280;42299;35.160;26.100;2023-02-12T05:41:34;102123.28;;;10.16;94.56
56402;BME280;42299;35.160;26.100;2023-02-12T05:42:55;102124.47;;;10.22;95.33
56402;BME280;42299;35.160;26.100;2023-02-12T05:44:18;102127.34;;;10.28;96.16
56402;BME280;42299;35.160;26.100;2023-02-12T05:45:39;102137.16;;;10.32;96.54
56402;BME280;42299;35.160;26.100;2023-02-12T05:47:03;102118.00;;;10.36;97.13
56402;BME280;42299;35.160;26.100;2023-02-12T05:48:25;102125.25;;;10.42;97.68
56402;BME280;42299;35.160;26.100;2023-02-12T05:49:47;102119.28;;;10.48;97.51
56402;BME280;42299;35.160;26.100;2023-02-12T05:51:11;102114.47;;;10.60;97.88
56402;BME280;42299;35.160;26.100;2023-02-12T05:52:35;102126.44;;;10.74;98.36
56402;BME280;42299;35.160;26.100;2023-02-12T05:53:59;102120.84;;;10.90;97.94
56402;BME280;42299;35.160;26.100;2023-02-12T05:55:20;102130.06;;;11.01;97.83
56402;BME280;42299;35.160;26.100;2023-02-12T05:56:44;102132.94;;;11.07;96.94
56402;BME280;42299;35.160;26.100;2023-02-12T05:58:07;102133.94;;;11.11;96.31
56402;BME280;42299;35.160;26.100;2023-02-12T05:59:29;102135.66;;;11.10;96.16
56402;BME280;42299;35.160;26.100;2023-02-12T06:00:51;102134.69;;;11.07;96.29
56402;BME280;42299;35.160;26.100;2023-02-12T06:02:13;102133.66;;;11.03;96.59
56402;BME280;42299;35.160;26.100;2023-02-12T06:03:35;102135.47;;;11.04;96.65
56402;BME280;42299;35.160;26.100;2023-02-12T06:04:56;102136.41;;;11.06;96.74
56402;BME280;42299;35.160;26.100;2023-02-12T06:06:18;102133.78;;;11.06;96.43
56402;BME280;42299;35.160;26.100;2023-02-12T06:07:41;102134.13;;;11.15;96.56
56402;BME280;42299;35.160;26.100;2023-02-12T06:09:03;102132.72;;;11.27;96.54
56402;BME280;42299;35.160;26.100;2023-02-12T06:10:26;102134.75;;;11.34;96.37
56402;BME280;42299;35.160;26.100;2023-02-12T06:11:48;102128.75;;;11.39;96.02
56402;BME280;42299;35.160;26.100;2023-02-12T06:13:10;102132.19;;;11.37;95.46
56402;BME280;42299;35.160;26.100;2023-02-12T06:14:31;102143.53;;;11.33;95.19
56402;BME280;42299;35.160;26.100;2023-02-12T06:15:54;102135.53;;;11.31;95.67
56402;BME280;42299;35.160;26.100;2023-02-12T06:17:15;102134.53;;;11.28;96.29
56402;BME280;42299;35.160;26.100;2023-02-12T06:18:37;102135.16;;;11.21;96.72
56402;BME280;42299;35.160;26.100;2023-02-12T06:19:58;102143.81;;;11.16;97.26
56402;BME280;42299;35.160;26.100;2023-02-12T06:21:23;102140.28;;;11.16;97.39
56402;BME280;42299;35.160;26.100;2023-02-12T06:22:46;102140.28;;;11.16;97.13
56402;BME280;42299;35.160;26.100;2023-02-12T06:24:08;102142.03;;;11.15;97.90
56402;BME280;42299;35.160;26.100;2023-02-12T06:25:33;102149.00;;;11.13;98.39
56402;BME280;42299;35.160;26.100;2023-02-12T06:26:55;102138.59;;;11.18;98.91
56402;BME280;42299;35.160;26.100;2023-02-12T06:28:18;102151.25;;;11.27;99.48
56402;BME280;42299;35.160;26.100;2023-02-12T06:29:39;102151.59;;;11.37;99.41
56402;BME280;42299;35.160;26.100;2023-02-12T06:31:03;102151.78;;;11.42;98.96
56402;BME280;42299;35.160;26.100;2023-02-12T06:32:24;102143.09;;;11.46;98.36
56402;BME280;42299;35.160;26.100;2023-02-12T06:33:47;102146.94;;;11.55;97.71
56402;BME280;42299;35.160;26.100;2023-02-12T06:35:08;102142.75;;;11.62;97.05
56402;BME280;42299;35.160;26.100;2023-02-12T06:36:31;102139.53;;;11.71;96.75
56402;BME280;42299;35.160;26.100;2023-02-12T06:37:53;102133.53;;;11.75;95.80
56402;BME280;42299;35.160;26.100;2023-02-12T06:39:16;102144.19;;;11.78;95.75
56402;BME280;42299;35.160;26.100;2023-02-12T06:40:38;102137.38;;;11.84;96.22
56402;BME280;42299;35.160;26.100;2023-02-12T06:42:01;102149.88;;;11.90;96.63
56402;BME280;42299;35.160;26.100;2023-02-12T06:43:23;102150.66;;;11.86;96.56
56402;BME280;42299;35.160;26.100;2023-02-12T06:44:44;102146.00;;;11.79;96.34
56402;BME280;42299;35.160;26.100;2023-02-12T06:46:07;102153.72;;;11.73;96.50
56402;BME280;42299;35.160;26.100;2023-02-12T06:47:30;102157.91;;;11.66;97.13
56402;BME280;42299;35.160;26.100;2023-02-12T06:48:53;102158.59;;;11.61;97.98
56402;BME280;42299;35.160;26.100;2023-02-12T06:50:14;102151.28;;;11.53;98.24
56402;BME280;42299;35.160;26.100;2023-02-12T06:51:36;102162.13;;;11.61;98.66
56402;BME280;42299;35.160;26.100;2023-02-12T06:53:02;102156.59;;;11.79;99.01
56402;BME280;42299;35.160;26.100;2023-02-12T06:54:24;102158.78;;;11.92;98.02
56402;BME280;42299;35.160;26.100;2023-02-12T06:55:46;102163.28;;;11.94;97.42
56402;BME280;42299;35.160;26.100;2023-02-12T06:57:07;102155.25;;;11.91;97.40
56402;BME280;42299;35.160;26.100;2023-02-12T06:58:32;102154.13;;;11.85;97.62
56402;BME280;42299;35.160;26.100;2023-02-12T06:59:54;102150.28;;;11.75;96.89
56402;BME280;42299;35.160;26.100;2023-02-12T07:01:18;102160.19;;;11.81;96.84
56402;BME280;42299;35.160;26.100;2023-02-12T07:02:41;102162.34;;;11.92;95.88
56402;BME280;42299;35.160;26.100;2023-02-12T07:04:03;102156.44;;;12.01;95.14
56402;BME280;42299;35.160;26.100;2023-02-12T07:05:25;102158.47;;;12.10;94.08
56402;BME280;42299;35.160;26.100;2023-02-12T07:06:48;102157.81;;;12.17;93.61
56402;BME280;42299;35.160;26.100;2023-02-12T07:08:13;102159.69;;;12.21;92.96
56402;BME280;42299;35.160;26.100;2023-02-12T07:09:36;102162.34;;;12.21;92.78
56402;BME280;42299;35.160;26.100;2023-02-12T07:10:58;102166.91;;;12.25;93.19
56402;BME280;42299;35.160;26.100;2023-02-12T07:12:19;102163.50;;;12.29;92.99
56402;BME280;42299;35.160;26.100;2023-02-12T07:13:43;102169.88;;;12.35;92.13
56402;BME280;42299;35.160;26.100;2023-02-12T07:15:06;102171.81;;;12.41;90.40
56402;BME280;42299;35.160;26.100;2023-02-12T07:16:28;102168.47;;;12.47;90.46
56402;BME280;42299;35.160;26.100;2023-02-12T07:17:49;102166.84;;;12.52;90.03
56402;BME280;42299;35.160;26.100;2023-02-12T07:19:12;102153.69;;;12.55;89.79
56402;BME280;42299;35.160;26.100;2023-02-12T07:20:36;102161.69;;;12.56;89.75